KOGB/OGB METAR and TAF weather

Enter ICAO airport designator
Station Type Date Time Source
KOGB METAR 2019/04/19 08:53 UTC NOAA

KOGB 190853Z AUTO 16009KT 10SM BKN022 OVC029 22/19 A2974 RMK AO2 SLP066 T02220194 56040


Station Type Date Time Source
KOGB Decoded METAR 2019/04/19 08:53 UTC NOAA

ORANGEBURG MUNICIPAL AIRPORT, SC, United States (KOGB) 33-28N 080-51W 59M
Apr 19, 2019 - 04:53 AM EDT / 2019.04.19 0853 UTC
Wind: from the SSE (160 degrees) at 10 MPH (9 KT):0
Visibility: 10 mile(s):0
Sky conditions: overcast
Temperature: 72.0 F (22.2 C)
Dew Point: 66.9 F (19.4 C)
Relative Humidity: 84%
Pressure (altimeter): 29.74 in. Hg (1007 hPa)
Pressure tendency: 0.12 inches (4.0 hPa) lower than three hours ago
ob: KOGB 190853Z AUTO 16009KT 10SM BKN022 OVC029 22/19 A2974 RMK AO2 SLP066 T02220194 56040
cycle: 9

Station Type Date Time Source
KOGB TAF 2019/04/19 09:36 UTC NOAA

TAF
AMD KOGB 190835Z 1909/2006 16010KT P6SM VCSH OVC015 WS020/18040KT
TEMPO 1909/1911 OVC020
FM191300 17012G22KT P6SM VCSH OVC015 WS020/18040KT
FM191700 18016G28KT 3SM TSRA OVC015CB
FM192000 21018G28KT 6SM -SHRA OVC025
FM200000 22015G25KT P6SM SCT025 OVC035

Example: see airport list